createdAt,value
2024-04-12T00:02:09.615Z,1.55
2024-04-12T00:04:37.169Z,1.58
2024-04-12T00:07:06.867Z,1.77
2024-04-12T00:09:33.834Z,1.45
2024-04-12T00:12:02.369Z,1.63
2024-04-12T00:14:29.566Z,1.73
2024-04-12T00:16:57.831Z,1.70
2024-04-12T00:19:25.185Z,1.40
2024-04-12T00:21:54.516Z,1.50
2024-04-12T00:24:26.274Z,1.80
2024-04-12T00:26:57.213Z,1.52
2024-04-12T00:29:28.047Z,1.60
2024-04-12T00:32:06.779Z,1.80
2024-04-12T00:34:39.875Z,1.70
2024-04-12T00:37:08.835Z,1.70
2024-04-12T00:39:40.409Z,1.67
2024-04-12T00:42:08.988Z,1.70
2024-04-12T00:44:40.950Z,1.83
2024-04-12T00:47:17.643Z,1.63
2024-04-12T00:49:51.949Z,1.83
2024-04-12T00:52:24.751Z,1.73
2024-04-12T00:55:05.205Z,1.60
2024-04-12T00:57:38.101Z,2.00
2024-04-12T01:00:11.880Z,1.92
2024-04-12T01:02:43.405Z,1.80
2024-04-12T01:05:19.151Z,1.65
2024-04-12T01:07:51.832Z,1.70
2024-04-12T01:10:27.209Z,1.80
2024-04-12T01:12:59.323Z,2.03
2024-04-12T01:15:34.529Z,2.17
2024-04-12T01:18:06.605Z,2.17
2024-04-12T01:20:37.101Z,2.30
2024-04-12T01:23:05.927Z,1.63
2024-04-12T01:25:35.840Z,1.70
2024-04-12T01:28:05.929Z,2.00
2024-04-12T01:30:32.919Z,1.80
2024-04-12T01:33:00.578Z,1.35
2024-04-12T01:35:27.851Z,1.63
2024-04-12T01:37:54.801Z,1.77
2024-04-12T01:40:24.698Z,1.83
2024-04-12T01:42:53.477Z,1.60
2024-04-12T01:45:28.941Z,1.60
2024-04-12T01:47:56.701Z,1.58
2024-04-12T01:50:24.201Z,1.50
2024-04-12T01:52:55.657Z,1.70
2024-04-12T01:55:24.496Z,1.65
2024-04-12T01:57:52.854Z,1.60
2024-04-12T02:00:22.050Z,1.45
2024-04-12T02:02:53.389Z,1.30
2024-04-12T02:05:34.297Z,1.60
2024-04-12T02:08:12.093Z,1.60
2024-04-12T02:10:43.318Z,1.70
2024-04-12T02:13:21.968Z,1.60
2024-04-12T02:15:53.655Z,1.50
2024-04-12T02:18:25.286Z,1.50
2024-04-12T02:20:54.548Z,1.67
2024-04-12T02:23:23.266Z,1.50
2024-04-12T02:25:51.303Z,1.45
2024-04-12T02:28:19.145Z,1.40
2024-04-12T02:30:47.657Z,1.60
2024-04-12T02:33:19.297Z,1.48
2024-04-12T02:35:47.125Z,1.70
2024-04-12T02:38:22.290Z,1.83
2024-04-12T02:40:49.994Z,1.58
2024-04-12T02:43:17.737Z,1.60
2024-04-12T02:45:51.917Z,1.75
2024-04-12T02:48:21.593Z,1.77
2024-04-12T02:50:55.399Z,1.50
2024-04-12T02:53:24.503Z,1.70
2024-04-12T02:56:02.337Z,1.65
2024-04-12T02:58:41.471Z,1.83
2024-04-12T03:01:10.029Z,2.08
2024-04-12T03:03:42.987Z,1.83
2024-04-12T03:06:11.472Z,1.77
2024-04-12T03:08:45.381Z,1.50
2024-04-12T03:11:24.273Z,1.83
2024-04-12T03:14:00.694Z,1.98
2024-04-12T03:16:28.099Z,1.88
2024-04-12T03:18:55.597Z,1.85
2024-04-12T03:21:25.692Z,2.15
2024-04-12T03:23:52.899Z,2.00
2024-04-12T03:26:23.337Z,1.80
2024-04-12T03:28:59.661Z,1.90
2024-04-12T03:31:28.239Z,1.90
2024-04-12T03:33:56.651Z,2.03
2024-04-12T03:36:28.337Z,1.85
2024-04-12T03:39:17.819Z,1.90
2024-04-12T03:41:45.698Z,1.83
2024-04-12T03:44:12.601Z,1.80
2024-04-12T03:46:41.921Z,1.60
2024-04-12T03:49:11.148Z,1.88
2024-04-12T03:51:45.283Z,1.85
2024-04-12T03:54:13.735Z,1.70
2024-04-12T03:56:40.417Z,1.75
2024-04-12T03:59:07.087Z,1.50
2024-04-12T04:01:38.104Z,1.80
2024-04-12T04:04:11.689Z,1.70
2024-04-12T04:06:38.708Z,1.60
2024-04-12T04:09:12.774Z,1.52
2024-04-12T04:11:46.909Z,1.67
2024-04-12T04:14:15.116Z,1.55
2024-04-12T04:16:42.580Z,1.60
2024-04-12T04:19:18.619Z,1.50
2024-04-12T04:21:47.279Z,1.50
2024-04-12T04:24:13.966Z,1.85
2024-04-12T04:26:41.979Z,1.60
2024-04-12T04:29:10.879Z,1.50
2024-04-12T04:31:49.074Z,1.42
2024-04-12T04:34:16.893Z,1.73
2024-04-12T04:36:51.203Z,1.42
2024-04-12T04:39:19.103Z,1.90
2024-04-12T04:41:51.401Z,1.48
2024-04-12T04:44:18.626Z,2.10
2024-04-12T04:46:50.366Z,1.88
2024-04-12T04:49:22.424Z,1.90
2024-04-12T04:51:50.273Z,2.00
2024-04-12T04:54:21.257Z,2.17
2024-04-12T04:56:48.292Z,2.28
2024-04-12T04:59:30.058Z,2.30
2024-04-12T05:01:57.948Z,2.00
2024-04-12T05:04:26.696Z,1.90
2024-04-12T05:06:54.219Z,2.10
2024-04-12T05:09:21.436Z,1.88
2024-04-12T05:11:52.317Z,2.22
2024-04-12T05:14:35.522Z,1.80
2024-04-12T05:17:08.716Z,2.05
2024-04-12T05:19:42.538Z,2.08
2024-04-12T05:22:11.974Z,1.80
2024-04-12T05:24:41.660Z,1.73
2024-04-12T05:27:13.257Z,2.30
2024-04-12T05:29:42.262Z,1.90
2024-04-12T05:32:11.604Z,1.83
2024-04-12T05:34:38.816Z,2.08
2024-04-12T05:37:05.727Z,2.35
2024-04-12T05:39:37.676Z,2.10
2024-04-12T05:42:08.694Z,1.77
2024-04-12T05:44:36.352Z,2.00
2024-04-12T05:47:11.530Z,2.53
2024-04-12T05:49:38.270Z,2.20
2024-04-12T05:52:08.438Z,2.25
2024-04-12T05:54:46.617Z,2.20
2024-04-12T05:57:13.967Z,2.10
2024-04-12T05:59:43.842Z,2.10
2024-04-12T06:02:11.565Z,1.98
2024-04-12T06:04:38.302Z,2.20
2024-04-12T06:07:14.783Z,2.08
2024-04-12T06:09:41.939Z,2.28
2024-04-12T06:12:09.289Z,2.20
2024-04-12T06:14:40.059Z,2.30
2024-04-12T06:17:10.977Z,2.65
2024-04-12T06:19:39.783Z,2.10
2024-04-12T06:22:14.782Z,2.60
2024-04-12T06:24:44.290Z,2.55
2024-04-12T06:27:11.211Z,2.70
2024-04-12T06:29:39.237Z,2.40
2024-04-12T06:32:09.496Z,2.60
2024-04-12T06:34:39.553Z,2.38
2024-04-12T06:37:10.244Z,2.58
2024-04-12T06:39:38.361Z,2.83
2024-04-12T06:42:05.975Z,2.50
2024-04-12T06:44:33.183Z,2.50
2024-04-12T06:47:00.059Z,2.22
2024-04-12T06:49:30.110Z,2.20
2024-04-12T06:52:11.035Z,2.28
2024-04-12T06:54:44.249Z,2.38
2024-04-12T06:57:19.546Z,2.03
2024-04-12T06:59:55.215Z,2.00
2024-04-12T07:02:26.238Z,1.70
2024-04-12T07:04:58.365Z,2.15
2024-04-12T07:07:26.182Z,1.90
2024-04-12T07:09:59.559Z,2.08
2024-04-12T07:12:32.839Z,2.33
2024-04-12T07:15:00.315Z,2.13
2024-04-12T07:17:27.867Z,1.90
2024-04-12T07:19:58.593Z,1.85
2024-04-12T07:22:29.750Z,2.03
2024-04-12T07:24:58.434Z,1.65
2024-04-12T07:27:29.527Z,2.10
2024-04-12T07:29:59.659Z,2.17
2024-04-12T07:32:27.322Z,2.15
2024-04-12T07:34:54.458Z,2.20
2024-04-12T07:37:37.613Z,2.53
2024-04-12T07:40:19.528Z,2.22
2024-04-12T07:42:47.697Z,2.38
2024-04-12T07:45:24.908Z,2.63
2024-04-12T07:48:01.806Z,2.53
2024-04-12T07:50:30.609Z,2.30
2024-04-12T07:52:59.980Z,2.40
2024-04-12T07:55:26.716Z,2.10
2024-04-12T07:57:56.263Z,2.13
2024-04-12T08:00:49.229Z,2.55
2024-04-12T08:03:18.858Z,1.95
2024-04-12T08:06:05.115Z,2.42
2024-04-12T08:08:45.034Z,2.20
2024-04-12T08:11:37.335Z,1.95
2024-04-12T08:14:10.038Z,1.85
2024-04-12T08:16:38.423Z,2.40
2024-04-12T08:19:14.116Z,2.13
2024-04-12T08:24:16.450Z,2.08
2024-04-12T08:26:49.590Z,2.28
2024-04-12T08:29:30.240Z,2.38
2024-04-12T08:32:13.063Z,2.58
2024-04-12T08:34:46.979Z,2.40
2024-04-12T08:37:14.897Z,1.98
2024-04-12T08:39:46.176Z,2.33
2024-04-12T08:42:15.970Z,2.20
2024-04-12T08:44:44.943Z,2.20
2024-04-12T08:47:28.490Z,2.58
2024-04-12T08:50:05.050Z,2.42
2024-04-12T08:52:44.941Z,2.65
2024-04-12T08:55:18.688Z,2.95
2024-04-12T08:57:49.385Z,2.97
2024-04-12T09:00:26.575Z,2.50
2024-04-12T09:03:04.677Z,3.20
2024-04-12T09:05:37.190Z,3.25
2024-04-12T09:08:08.278Z,3.35
2024-04-12T09:10:37.417Z,3.00
2024-04-12T09:13:10.679Z,3.10
2024-04-12T09:15:40.234Z,3.40
2024-04-12T09:18:15.804Z,3.40
2024-04-12T09:20:46.477Z,3.20
2024-04-12T09:23:18.364Z,2.80
2024-04-12T09:25:56.247Z,3.05
2024-04-12T09:28:28.553Z,3.15
2024-04-12T09:31:31.363Z,3.20
2024-04-12T09:34:18.942Z,2.50
2024-04-12T09:37:03.701Z,2.70
2024-04-12T09:39:59.311Z,2.60
2024-04-12T09:42:29.838Z,2.78
2024-04-12T09:45:10.811Z,3.35
2024-04-12T09:48:00.308Z,2.78
2024-04-12T09:50:46.852Z,2.78
2024-04-12T09:53:32.371Z,2.40
2024-04-12T09:56:19.320Z,2.05
2024-04-12T09:59:09.480Z,2.22
2024-04-12T10:01:56.240Z,2.45
2024-04-12T10:04:43.370Z,1.90
2024-04-12T10:07:29.934Z,2.30
2024-04-12T10:10:15.731Z,2.15
2024-04-12T10:13:01.145Z,2.10
2024-04-12T10:15:46.864Z,2.15
2024-04-12T10:18:32.796Z,2.30
2024-04-12T10:24:22.433Z,1.95
2024-04-12T10:27:07.742Z,1.80
2024-04-12T10:29:53.266Z,2.00
2024-04-12T10:32:45.272Z,1.80
2024-04-12T10:35:33.096Z,1.95
2024-04-12T10:37:59.759Z,2.03
2024-04-12T10:40:29.646Z,1.60
2024-04-12T10:42:57.571Z,2.00
2024-04-12T10:45:27.325Z,1.88
2024-04-12T10:47:58.138Z,1.80
2024-04-12T10:50:25.318Z,1.90
2024-04-12T10:52:52.729Z,2.10
2024-04-12T10:55:22.626Z,2.28
2024-04-12T10:57:49.960Z,2.53
2024-04-12T11:00:18.858Z,2.00
2024-04-12T11:02:58.249Z,2.05
2024-04-12T11:05:36.445Z,1.88
2024-04-12T11:08:12.690Z,1.60
2024-04-12T11:10:58.873Z,1.52
2024-04-12T11:13:37.097Z,1.33
2024-04-12T11:16:23.200Z,1.40
2024-04-12T11:19:11.920Z,1.60
2024-04-12T11:21:58.482Z,1.50
2024-04-12T11:24:44.276Z,1.20
2024-04-12T11:27:29.828Z,1.10
2024-04-12T11:52:00.727Z,1.13
2024-04-12T11:54:31.087Z,1.30
2024-04-12T11:57:00.809Z,0.80
2024-04-12T11:59:31.719Z,0.70
2024-04-12T12:02:03.178Z,1.00
2024-04-12T12:04:30.712Z,0.90
2024-04-12T12:07:00.977Z,1.23
2024-04-12T12:09:32.855Z,1.10
2024-04-12T12:12:02.145Z,0.90
2024-04-12T12:14:29.152Z,0.90
2024-04-12T12:16:58.688Z,1.30
2024-04-12T12:19:25.841Z,1.02
2024-04-12T12:21:52.871Z,1.10
2024-04-12T12:24:21.112Z,1.20
2024-04-12T12:26:51.531Z,0.85
2024-04-12T12:29:19.977Z,0.80
2024-04-12T12:31:48.098Z,0.93
2024-04-12T12:34:15.856Z,0.77
2024-04-12T12:36:42.915Z,0.90
2024-04-12T12:39:13.360Z,0.95
2024-04-12T12:41:46.932Z,0.75
2024-04-12T12:44:19.481Z,0.90
2024-04-12T12:46:46.850Z,0.90
2024-04-12T12:49:13.778Z,1.08
2024-04-12T12:51:41.645Z,1.20
2024-04-12T12:54:09.304Z,1.05
2024-04-12T12:56:36.688Z,0.80
2024-04-12T12:59:04.173Z,1.00
2024-04-12T13:01:36.293Z,0.75
2024-04-12T13:04:08.626Z,0.90
2024-04-12T13:06:36.214Z,0.70
2024-04-12T13:09:10.344Z,0.70
2024-04-12T13:11:37.827Z,0.75
2024-04-12T13:14:10.918Z,0.90
2024-04-12T13:16:43.187Z,0.60
2024-04-12T13:19:17.077Z,1.00
2024-04-12T13:21:44.257Z,0.88
2024-04-12T13:24:15.086Z,0.60
2024-04-12T13:26:51.861Z,0.55
2024-04-12T13:29:19.347Z,0.70
2024-04-12T13:31:51.687Z,0.43
2024-04-12T13:34:19.993Z,0.60
2024-04-12T13:36:48.936Z,0.40
2024-04-12T13:39:16.443Z,0.50
2024-04-12T13:41:46.616Z,0.40
2024-04-12T13:44:26.711Z,0.63
2024-04-12T13:47:13.215Z,0.60
2024-04-12T13:49:58.737Z,0.80
2024-04-12T13:52:26.607Z,0.63
2024-04-12T13:54:57.330Z,0.63
2024-04-12T13:57:26.061Z,0.82
2024-04-12T13:59:53.524Z,0.70
2024-04-12T14:02:20.551Z,0.80
2024-04-12T14:04:47.775Z,0.70
2024-04-12T14:07:16.426Z,0.80
2024-04-12T14:09:43.200Z,0.68
2024-04-12T14:12:11.443Z,0.50
2024-04-12T14:14:38.459Z,0.80
2024-04-12T14:17:06.786Z,0.70
2024-04-12T14:19:33.604Z,0.88
2024-04-12T14:22:00.519Z,0.60
2024-04-12T14:24:46.257Z,0.50
2024-04-12T14:27:14.144Z,1.02
2024-04-12T14:29:41.100Z,0.52
2024-04-12T14:32:08.334Z,0.70
2024-04-12T14:34:37.006Z,0.73
2024-04-12T14:37:05.316Z,0.80
2024-04-12T14:39:34.098Z,0.70
2024-04-12T14:42:03.076Z,0.90
2024-04-12T14:44:40.444Z,1.02
2024-04-12T14:47:08.550Z,0.80
2024-04-12T14:49:35.519Z,0.90
2024-04-12T14:52:02.838Z,0.88
2024-04-12T14:54:31.770Z,0.80
2024-04-12T14:56:58.823Z,1.10
2024-04-12T14:59:25.730Z,1.02
2024-04-12T15:01:52.549Z,1.20
2024-04-12T15:04:37.842Z,1.77
2024-04-12T15:07:23.549Z,1.00
2024-04-12T15:10:08.889Z,2.08
2024-04-12T15:12:54.514Z,1.13
2024-04-12T15:15:40.192Z,1.10
2024-04-12T15:18:26.292Z,1.33
2024-04-12T15:21:12.172Z,1.10
2024-04-12T15:26:42.892Z,1.17
2024-04-12T15:29:28.354Z,1.00
2024-04-12T15:32:14.015Z,0.82
2024-04-12T15:34:59.426Z,1.00
2024-04-12T15:37:44.625Z,0.70
2024-04-12T15:40:30.108Z,1.00
2024-04-12T15:43:15.356Z,0.80
2024-04-12T15:46:01.030Z,1.00
2024-04-12T15:48:30.486Z,0.98
2024-04-12T15:50:57.986Z,0.90
2024-04-12T15:53:27.227Z,0.95
2024-04-12T15:55:55.320Z,0.90
2024-04-12T15:58:44.145Z,1.20
2024-04-12T16:01:30.065Z,0.80
2024-04-12T16:07:02.030Z,0.93
2024-04-12T16:09:47.502Z,1.20
2024-04-12T16:12:14.483Z,1.25
2024-04-12T16:14:41.250Z,0.90
2024-04-12T16:17:12.015Z,0.90
2024-04-12T16:19:47.877Z,1.17
2024-04-12T16:22:14.729Z,1.15
2024-04-12T16:24:41.629Z,0.95
2024-04-12T16:27:08.924Z,1.50
2024-04-12T16:29:38.699Z,1.27
2024-04-12T16:32:05.845Z,0.90
2024-04-12T16:34:32.693Z,1.00
2024-04-12T16:37:05.117Z,1.02
2024-04-12T16:39:32.191Z,1.08
2024-04-12T16:41:58.920Z,1.00
2024-04-12T16:44:27.591Z,0.98
2024-04-12T16:46:54.491Z,1.13
2024-04-12T16:49:21.305Z,1.15
2024-04-12T16:51:51.129Z,0.98
2024-04-12T16:54:18.007Z,0.80
2024-04-12T16:56:44.811Z,0.90
2024-04-12T16:59:12.467Z,0.90
2024-04-12T17:01:39.234Z,0.95
2024-04-12T17:04:06.198Z,1.30
2024-04-12T17:06:33.076Z,0.95
2024-04-12T17:08:59.811Z,1.13
2024-04-12T17:11:27.446Z,0.98
2024-04-12T17:13:54.342Z,1.02
2024-04-12T17:16:21.863Z,0.90
2024-04-12T17:18:49.238Z,1.10
2024-04-12T17:21:16.235Z,0.90
2024-04-12T17:23:43.157Z,1.05
2024-04-12T17:26:09.988Z,1.00
2024-04-12T17:28:39.420Z,1.00
2024-04-12T17:31:09.554Z,0.90
2024-04-12T17:33:36.623Z,1.00
2024-04-12T17:36:07.820Z,0.70
2024-04-12T17:38:37.420Z,0.90
2024-04-12T17:41:04.445Z,0.75
2024-04-12T17:43:31.431Z,0.90
2024-04-12T17:45:58.601Z,0.90
2024-04-12T17:48:25.594Z,0.80
2024-04-12T17:50:53.589Z,0.90
2024-04-12T17:53:20.592Z,1.13
2024-04-12T17:55:47.313Z,0.90
2024-04-12T17:58:14.088Z,1.20
2024-04-12T18:00:41.052Z,0.98
2024-04-12T18:03:09.843Z,1.08
2024-04-12T18:05:39.064Z,1.30
2024-04-12T18:08:06.748Z,1.02
2024-04-12T18:10:33.643Z,1.08
2024-04-12T18:13:00.972Z,0.80
2024-04-12T18:15:29.087Z,1.48
2024-04-12T18:17:55.950Z,1.90
2024-04-12T18:20:25.974Z,1.52
2024-04-12T18:22:53.819Z,1.30
2024-04-12T18:25:20.922Z,1.30
2024-04-12T18:27:47.788Z,1.10
2024-04-12T18:30:14.640Z,1.10
2024-04-12T18:32:42.696Z,1.27
2024-04-12T18:35:14.017Z,1.10
2024-04-12T18:38:01.440Z,1.08
2024-04-12T18:40:46.832Z,1.50
2024-04-12T18:43:31.927Z,1.10
2024-04-12T18:45:59.062Z,1.40
2024-04-12T18:48:28.076Z,0.95
2024-04-12T18:50:55.011Z,0.90
2024-04-12T18:53:23.206Z,1.10
2024-04-12T18:55:50.226Z,1.30
2024-04-12T18:58:16.921Z,1.50
2024-04-12T19:00:49.879Z,1.20
2024-04-12T19:03:16.784Z,1.23
2024-04-12T19:05:45.689Z,1.15
2024-04-12T19:08:12.893Z,1.23
2024-04-12T19:10:41.312Z,1.20
2024-04-12T19:13:08.930Z,1.10
2024-04-12T19:15:42.115Z,1.13
2024-04-12T19:18:10.984Z,1.20
2024-04-12T19:20:44.378Z,1.00
2024-04-12T19:23:12.292Z,1.05
2024-04-12T19:25:39.477Z,1.35
2024-04-12T19:28:06.434Z,1.05
2024-04-12T19:30:37.730Z,1.00
2024-04-12T19:33:04.821Z,0.90
2024-04-12T19:35:31.713Z,0.73
2024-04-12T19:37:58.425Z,1.30
2024-04-12T19:40:25.076Z,1.80
2024-04-12T19:42:51.835Z,2.83
2024-04-12T19:45:18.542Z,1.88
2024-04-12T19:47:45.366Z,1.50
2024-04-12T19:50:12.262Z,1.50
2024-04-12T19:52:47.337Z,1.27
2024-04-12T19:55:18.033Z,1.40
2024-04-12T19:57:44.782Z,1.45
2024-04-12T20:00:14.082Z,1.25
2024-04-12T20:02:41.015Z,1.30
2024-04-12T20:05:07.770Z,1.40
2024-04-12T20:07:34.565Z,1.42
2024-04-12T20:10:01.295Z,1.50
2024-04-12T20:12:27.988Z,1.52
2024-04-12T20:14:56.393Z,1.40
2024-04-12T20:17:23.610Z,1.30
2024-04-12T20:19:53.638Z,1.30
2024-04-12T20:22:23.441Z,1.35
2024-04-12T20:24:50.583Z,1.60
2024-04-12T20:27:18.233Z,1.55
2024-04-12T20:29:56.202Z,1.40
2024-04-12T20:32:25.710Z,1.30
2024-04-12T20:35:15.770Z,1.55
2024-04-12T20:37:43.919Z,1.15
2024-04-12T20:40:10.771Z,1.15
2024-04-12T20:42:37.610Z,1.08
2024-04-12T20:45:04.924Z,1.20
2024-04-12T20:47:31.632Z,1.40
2024-04-12T20:49:58.435Z,1.30
2024-04-12T20:52:25.347Z,1.30
2024-04-12T20:54:52.033Z,1.30
2024-04-12T20:57:19.683Z,1.15
2024-04-12T20:59:52.496Z,1.42
2024-04-12T21:02:19.336Z,1.30
2024-04-12T21:04:51.244Z,1.58
2024-04-12T21:07:18.521Z,1.70
2024-04-12T21:09:45.385Z,1.40
2024-04-12T21:12:12.219Z,1.75
2024-04-12T21:14:41.411Z,1.40
2024-04-12T21:17:09.713Z,1.60
2024-04-12T21:19:36.501Z,1.50
2024-04-12T21:22:03.242Z,1.45
2024-04-12T21:24:31.319Z,1.65
2024-04-12T21:26:58.374Z,1.73
2024-04-12T21:29:25.025Z,1.20
2024-04-12T21:31:51.716Z,1.50
2024-04-12T21:34:18.790Z,1.40
2024-04-12T21:36:45.453Z,1.63
2024-04-12T21:39:12.333Z,1.40
2024-04-12T21:41:39.208Z,1.50
2024-04-12T21:44:09.814Z,1.63
2024-04-12T21:46:37.011Z,1.83
2024-04-12T21:49:06.215Z,1.60
2024-04-12T21:51:33.133Z,1.70
2024-04-12T21:54:01.849Z,1.60
2024-04-12T21:56:28.930Z,1.35
2024-04-12T21:58:55.617Z,1.50
2024-04-12T22:01:22.302Z,1.75
2024-04-12T22:03:49.406Z,1.40
2024-04-12T22:06:16.506Z,1.30
2024-04-12T22:08:44.166Z,1.50
2024-04-12T22:11:11.661Z,1.45
2024-04-12T22:13:39.365Z,1.33
2024-04-12T22:16:10.648Z,1.40
2024-04-12T22:18:39.930Z,1.30
2024-04-12T22:21:15.843Z,1.52
2024-04-12T22:23:45.634Z,1.80
2024-04-12T22:26:17.693Z,1.50
2024-04-12T22:28:48.761Z,1.70
2024-04-12T22:31:17.663Z,1.52
2024-04-12T22:33:46.074Z,1.52
2024-04-12T22:36:13.489Z,1.58
2024-04-12T22:38:40.365Z,1.80
2024-04-12T22:41:08.000Z,1.48
2024-04-12T22:43:34.830Z,1.33
2024-04-12T22:46:01.482Z,1.70
2024-04-12T22:48:28.480Z,1.40
2024-04-12T22:50:55.461Z,1.83
2024-04-12T22:53:22.833Z,1.60
2024-04-12T22:55:50.433Z,1.63
2024-04-12T22:58:17.225Z,1.80
2024-04-12T23:00:44.567Z,1.50
2024-04-12T23:03:11.561Z,1.67
2024-04-12T23:05:38.408Z,1.40
2024-04-12T23:08:05.374Z,1.75
2024-04-12T23:10:33.803Z,1.75
2024-04-12T23:13:00.722Z,1.80
2024-04-12T23:15:27.710Z,1.67
2024-04-12T23:17:54.835Z,1.83
2024-04-12T23:20:23.712Z,1.70
2024-04-12T23:22:50.488Z,1.73
2024-04-12T23:25:17.466Z,1.70
2024-04-12T23:27:44.333Z,1.75
2024-04-12T23:30:11.332Z,1.77
2024-04-12T23:32:38.448Z,1.50
2024-04-12T23:35:05.793Z,1.63
2024-04-12T23:37:34.316Z,1.58
2024-04-12T23:40:01.196Z,1.55
2024-04-12T23:42:28.841Z,1.70
2024-04-12T23:44:55.656Z,2.00
2024-04-12T23:47:22.683Z,1.90
2024-04-12T23:49:49.568Z,2.00
2024-04-12T23:52:16.280Z,1.67
2024-04-12T23:54:42.954Z,1.70
2024-04-12T23:57:09.870Z,1.60
2024-04-12T23:59:36.584Z,1.40
